createdAt,value
2022-10-31T00:01:11.205Z,21.42
2022-10-31T00:03:37.820Z,17.63
2022-10-31T00:06:04.509Z,16.83
2022-10-31T00:08:31.110Z,17.60
2022-10-31T00:10:57.778Z,20.48
2022-10-31T00:13:24.394Z,16.23
2022-10-31T00:15:51.029Z,18.02
2022-10-31T00:18:17.617Z,19.00
2022-10-31T00:20:44.286Z,15.70
2022-10-31T00:23:11.488Z,18.88
2022-10-31T00:25:39.059Z,16.73
2022-10-31T00:28:06.551Z,17.25
2022-10-31T00:30:33.395Z,15.27
2022-10-31T00:33:00.364Z,13.77
2022-10-31T00:35:27.340Z,13.32
2022-10-31T00:37:54.059Z,23.25
2022-10-31T00:40:20.658Z,14.88
2022-10-31T00:42:47.245Z,17.77
2022-10-31T00:45:14.071Z,21.17
2022-10-31T00:47:40.638Z,16.17
2022-10-31T00:50:07.620Z,12.05
2022-10-31T00:52:34.501Z,15.13
2022-10-31T00:55:01.113Z,11.88
2022-10-31T00:57:27.746Z,16.60
2022-10-31T00:59:54.332Z,15.90
2022-10-31T01:02:21.075Z,12.02
2022-10-31T01:04:47.889Z,9.20
2022-10-31T01:07:14.960Z,11.93
2022-10-31T01:09:41.715Z,15.13
2022-10-31T01:12:08.425Z,11.18
2022-10-31T01:14:35.082Z,12.73
2022-10-31T01:17:01.867Z,17.95
2022-10-31T01:19:28.488Z,13.15
2022-10-31T01:21:56.255Z,14.90
2022-10-31T01:24:22.969Z,16.33
2022-10-31T01:26:49.632Z,13.75
2022-10-31T01:29:16.247Z,15.98
2022-10-31T01:31:42.837Z,11.35
2022-10-31T01:34:11.408Z,14.90
2022-10-31T01:36:38.534Z,12.80
2022-10-31T01:39:07.101Z,14.75
2022-10-31T01:41:35.664Z,11.00
2022-10-31T01:44:04.135Z,15.20
2022-10-31T01:46:35.193Z,19.23
2022-10-31T01:49:05.241Z,10.82
2022-10-31T01:51:34.542Z,14.43
2022-10-31T01:54:05.536Z,10.60
2022-10-31T01:56:32.772Z,12.98
2022-10-31T01:58:59.628Z,17.35
2022-10-31T02:01:26.346Z,12.63
2022-10-31T02:03:52.980Z,13.77
2022-10-31T02:06:25.714Z,14.77
2022-10-31T02:11:18.801Z,14.02
2022-10-31T02:13:45.430Z,11.50
2022-10-31T02:16:12.042Z,13.50
2022-10-31T02:18:38.725Z,10.88
2022-10-31T02:21:20.195Z,15.15
2022-10-31T02:24:26.627Z,16.10
2022-10-31T02:27:07.827Z,9.82
2022-10-31T02:29:56.513Z,12.18
2022-10-31T02:35:35.066Z,13.30
2022-10-31T02:40:36.804Z,12.50
2022-10-31T02:43:18.981Z,6.40
2022-10-31T02:48:27.295Z,13.38
2022-10-31T02:50:58.839Z,9.65
2022-10-31T02:53:25.472Z,9.63
2022-10-31T02:55:57.268Z,21.83
2022-10-31T02:58:24.902Z,12.63
2022-10-31T03:00:59.853Z,11.13
2022-10-31T03:03:38.057Z,9.50
2022-10-31T03:06:14.817Z,8.00
2022-10-31T03:08:51.617Z,11.25
2022-10-31T03:11:18.817Z,13.63
2022-10-31T03:13:48.772Z,8.32
2022-10-31T03:16:26.565Z,12.30
2022-10-31T03:19:02.823Z,11.02
2022-10-31T03:21:31.812Z,12.20
2022-10-31T03:23:58.406Z,8.55
2022-10-31T03:26:25.027Z,9.82
2022-10-31T03:28:58.087Z,11.30
2022-10-31T03:31:28.030Z,9.95
2022-10-31T03:33:54.599Z,9.90
2022-10-31T03:36:21.206Z,10.65
2022-10-31T03:38:47.888Z,13.70
2022-10-31T03:41:19.176Z,9.55
2022-10-31T03:43:49.461Z,11.48
2022-10-31T03:46:16.053Z,9.23
2022-10-31T03:48:42.601Z,11.48
2022-10-31T03:51:15.790Z,13.60
2022-10-31T03:53:48.053Z,8.10
2022-10-31T03:56:20.611Z,13.20
2022-10-31T03:58:50.984Z,8.15
2022-10-31T04:01:18.130Z,12.98
2022-10-31T04:03:44.777Z,12.18
2022-10-31T04:06:12.453Z,13.57
2022-10-31T04:08:43.484Z,27.17
2022-10-31T04:11:10.213Z,13.18
2022-10-31T04:13:37.485Z,15.40
2022-10-31T04:16:04.171Z,10.88
2022-10-31T04:18:30.767Z,19.00
2022-10-31T04:21:02.150Z,9.45
2022-10-31T04:23:28.885Z,15.48
2022-10-31T04:25:55.513Z,10.45
2022-10-31T04:28:22.169Z,8.77
2022-10-31T04:30:48.850Z,8.43
2022-10-31T04:33:15.532Z,10.88
2022-10-31T04:35:42.188Z,10.50
2022-10-31T04:38:08.792Z,12.90
2022-10-31T04:40:35.358Z,16.92
2022-10-31T04:43:02.376Z,11.30
2022-10-31T04:45:29.131Z,16.05
2022-10-31T04:47:55.694Z,13.93
2022-10-31T04:50:22.305Z,14.00
2022-10-31T04:52:48.883Z,11.43
2022-10-31T04:55:15.656Z,12.93
2022-10-31T04:57:46.919Z,8.13
2022-10-31T05:00:14.448Z,14.15
2022-10-31T05:02:48.909Z,15.63
2022-10-31T05:05:16.221Z,14.75
2022-10-31T05:07:43.287Z,9.85
2022-10-31T05:10:10.984Z,13.35
2022-10-31T05:12:37.793Z,18.23
2022-10-31T05:15:05.498Z,9.60
2022-10-31T05:17:32.573Z,14.32
2022-10-31T05:19:59.122Z,18.02
2022-10-31T05:22:25.689Z,13.98
2022-10-31T05:24:52.297Z,19.67
2022-10-31T05:27:18.873Z,9.68
2022-10-31T05:29:45.421Z,17.10
2022-10-31T05:32:12.005Z,16.88
2022-10-31T05:34:38.585Z,14.40
2022-10-31T05:37:05.199Z,14.77
2022-10-31T05:39:31.954Z,16.15
2022-10-31T05:41:58.497Z,12.45
2022-10-31T05:44:25.060Z,28.60
2022-10-31T05:46:51.671Z,19.27
2022-10-31T05:49:18.780Z,18.05
2022-10-31T05:51:45.422Z,24.77
2022-10-31T05:54:15.713Z,14.00
2022-10-31T05:56:42.669Z,16.58
2022-10-31T05:59:09.246Z,19.42
2022-10-31T06:01:35.911Z,18.02
2022-10-31T06:04:02.604Z,23.75
2022-10-31T06:06:29.185Z,21.17
2022-10-31T06:08:55.885Z,16.05
2022-10-31T06:11:22.560Z,14.52
2022-10-31T06:13:49.155Z,18.58
2022-10-31T06:16:15.769Z,12.73
2022-10-31T06:18:42.415Z,22.02
2022-10-31T06:21:09.049Z,16.38
2022-10-31T06:23:35.646Z,10.10
2022-10-31T06:26:02.222Z,10.45
2022-10-31T06:28:28.817Z,29.55
2022-10-31T06:30:55.428Z,10.38
2022-10-31T06:33:22.053Z,18.42
2022-10-31T06:35:48.668Z,12.25
2022-10-31T06:38:15.597Z,14.40
2022-10-31T06:40:42.319Z,8.05
2022-10-31T06:43:08.923Z,19.10
2022-10-31T06:45:35.549Z,12.88
2022-10-31T06:48:18.484Z,15.30
2022-10-31T06:50:45.409Z,11.05
2022-10-31T06:53:12.424Z,14.02
2022-10-31T06:55:39.294Z,9.07
2022-10-31T06:58:06.517Z,7.88
2022-10-31T07:00:33.317Z,12.27
2022-10-31T07:03:02.366Z,9.98
2022-10-31T07:05:29.177Z,8.95
2022-10-31T07:07:56.786Z,14.60
2022-10-31T07:10:24.184Z,10.98
2022-10-31T07:12:57.196Z,11.75
2022-10-31T07:15:24.941Z,13.30
2022-10-31T07:17:51.543Z,13.88
2022-10-31T07:20:18.206Z,14.00
2022-10-31T07:22:50.420Z,8.52
2022-10-31T07:25:17.361Z,18.63
2022-10-31T07:27:44.241Z,9.48
2022-10-31T07:30:11.937Z,10.43
2022-10-31T07:32:42.310Z,8.32
2022-10-31T07:35:09.855Z,13.85
2022-10-31T07:37:36.473Z,7.85
2022-10-31T07:40:04.333Z,9.27
2022-10-31T07:42:35.230Z,10.35
2022-10-31T07:45:01.822Z,7.93
2022-10-31T07:47:28.406Z,9.93
2022-10-31T07:49:54.985Z,8.43
2022-10-31T07:52:21.533Z,10.93
2022-10-31T07:54:48.128Z,11.30
2022-10-31T07:57:16.015Z,13.35
2022-10-31T07:59:42.748Z,10.27
2022-10-31T08:02:09.555Z,9.10
2022-10-31T08:04:36.282Z,8.38
2022-10-31T08:07:02.845Z,9.07
2022-10-31T08:09:29.424Z,6.53
2022-10-31T08:11:56.004Z,7.45
2022-10-31T08:14:23.292Z,7.85
2022-10-31T08:16:49.873Z,10.15
2022-10-31T08:19:16.667Z,9.15
2022-10-31T08:21:43.251Z,19.80
2022-10-31T08:24:10.251Z,10.55
2022-10-31T08:26:36.988Z,16.30
2022-10-31T08:29:03.752Z,16.85
2022-10-31T08:31:33.804Z,14.73
2022-10-31T08:34:01.630Z,14.90
2022-10-31T08:36:28.627Z,18.75
2022-10-31T08:39:00.646Z,17.02
2022-10-31T08:41:28.423Z,10.68
2022-10-31T08:43:55.141Z,15.93
2022-10-31T08:46:21.810Z,17.20
2022-10-31T08:48:49.846Z,16.38
2022-10-31T08:51:16.415Z,18.55
2022-10-31T08:53:42.981Z,14.48
2022-10-31T08:56:09.553Z,9.93
2022-10-31T08:58:40.127Z,9.93
2022-10-31T09:01:07.624Z,12.77
2022-10-31T09:03:34.325Z,14.07
2022-10-31T09:06:03.730Z,16.70
2022-10-31T09:08:31.260Z,12.68
2022-10-31T09:10:58.145Z,16.00
2022-10-31T09:13:27.977Z,13.05
2022-10-31T09:15:54.974Z,17.77
2022-10-31T09:18:22.474Z,15.43
2022-10-31T09:20:49.522Z,13.32
2022-10-31T09:23:17.725Z,10.38
2022-10-31T09:25:50.022Z,13.07
2022-10-31T09:28:18.869Z,15.48
2022-10-31T09:30:47.517Z,17.50
2022-10-31T09:33:14.298Z,20.77
2022-10-31T09:35:41.204Z,8.43
2022-10-31T09:38:12.477Z,11.75
2022-10-31T09:40:41.850Z,8.45
2022-10-31T09:43:34.201Z,19.90
2022-10-31T09:51:58.045Z,9.93
2022-10-31T09:57:02.962Z,18.88
2022-10-31T09:59:32.463Z,10.63
2022-10-31T10:02:02.431Z,10.75
2022-10-31T10:04:58.107Z,14.30
2022-10-31T10:07:46.278Z,16.48
2022-10-31T10:10:18.665Z,7.55
2022-10-31T10:13:25.205Z,11.00
2022-10-31T10:16:15.658Z,9.13
2022-10-31T10:18:49.200Z,6.57
2022-10-31T10:24:44.684Z,9.43
2022-10-31T10:27:51.136Z,11.50
2022-10-31T10:30:21.369Z,9.40
2022-10-31T10:32:52.735Z,6.43
2022-10-31T10:35:25.786Z,8.48
2022-10-31T10:37:55.258Z,4.70
2022-10-31T10:40:24.722Z,6.65
2022-10-31T10:43:24.810Z,8.73
2022-10-31T10:46:19.141Z,17.05
2022-10-31T10:48:56.774Z,9.23
2022-10-31T10:51:58.188Z,13.30
2022-10-31T10:54:55.904Z,8.68
2022-10-31T10:57:44.469Z,10.00
2022-10-31T11:00:19.414Z,13.27
2022-10-31T11:02:48.872Z,9.20
2022-10-31T11:08:04.998Z,11.50
2022-10-31T11:10:31.751Z,10.15
2022-10-31T11:15:54.438Z,8.48
2022-10-31T11:20:54.524Z,8.18
2022-10-31T11:23:22.986Z,8.10
2022-10-31T11:25:52.537Z,20.35
2022-10-31T11:28:19.186Z,8.52
2022-10-31T11:30:50.946Z,16.33
2022-10-31T11:33:21.595Z,8.43
2022-10-31T11:35:50.972Z,7.07
2022-10-31T11:38:22.378Z,11.10
2022-10-31T11:40:59.680Z,14.70
2022-10-31T11:43:26.580Z,10.43
2022-10-31T11:45:53.253Z,10.18
2022-10-31T11:48:21.913Z,14.00
2022-10-31T11:50:50.806Z,15.80
2022-10-31T11:53:19.535Z,9.32
2022-10-31T11:55:46.472Z,12.43
2022-10-31T11:58:22.261Z,6.75
2022-10-31T12:00:51.799Z,15.73
2022-10-31T12:03:54.954Z,11.00
2022-10-31T12:06:38.149Z,10.60
2022-10-31T12:09:19.762Z,18.38
2022-10-31T12:12:01.552Z,13.07
2022-10-31T12:14:50.735Z,8.88
2022-10-31T12:17:21.009Z,7.38
2022-10-31T12:20:14.018Z,9.43
2022-10-31T12:26:02.889Z,7.13
2022-10-31T12:29:01.131Z,12.60
2022-10-31T12:31:44.771Z,15.95
2022-10-31T12:34:51.250Z,12.38
2022-10-31T12:37:42.240Z,9.20
2022-10-31T12:40:20.535Z,10.95
2022-10-31T12:45:56.454Z,16.15
2022-10-31T12:48:51.631Z,18.23
2022-10-31T12:51:44.626Z,8.18
2022-10-31T12:57:34.705Z,9.27
2022-10-31T13:00:08.436Z,12.85
2022-10-31T13:03:14.917Z,15.43
2022-10-31T13:05:43.082Z,7.55
2022-10-31T13:08:16.585Z,19.13
2022-10-31T13:10:53.383Z,11.15
2022-10-31T13:13:28.213Z,8.65
2022-10-31T13:16:18.499Z,12.82
2022-10-31T13:18:53.059Z,11.10
2022-10-31T13:21:23.836Z,12.13
2022-10-31T13:23:52.685Z,10.50
2022-10-31T13:26:42.826Z,14.93
2022-10-31T13:29:38.613Z,12.90
2022-10-31T13:32:06.249Z,12.38
2022-10-31T13:34:51.649Z,9.73
2022-10-31T13:37:39.171Z,9.40
2022-10-31T13:40:25.178Z,14.43
2022-10-31T13:43:21.117Z,16.83
2022-10-31T13:45:50.573Z,13.95
2022-10-31T13:48:34.764Z,16.20
2022-10-31T13:51:03.751Z,15.68
2022-10-31T13:53:43.527Z,9.30
2022-10-31T13:59:15.842Z,12.57
2022-10-31T14:01:59.034Z,11.57
2022-10-31T14:04:29.462Z,18.13
2022-10-31T14:09:39.577Z,18.70
2022-10-31T14:12:08.519Z,11.52
2022-10-31T14:14:41.085Z,16.88
2022-10-31T14:17:17.043Z,18.38
2022-10-31T14:19:43.695Z,15.45
2022-10-31T14:22:29.330Z,17.40
2022-10-31T14:24:55.913Z,9.50
2022-10-31T14:30:14.480Z,16.23
2022-10-31T14:32:41.066Z,15.15
2022-10-31T14:35:17.503Z,9.88
2022-10-31T14:38:15.803Z,14.07
2022-10-31T14:41:07.781Z,13.25
2022-10-31T14:44:06.098Z,15.80
2022-10-31T14:46:57.895Z,9.45
2022-10-31T14:49:36.536Z,13.27
2022-10-31T14:52:03.157Z,20.55
2022-10-31T14:54:33.158Z,19.02
2022-10-31T14:57:08.812Z,14.40
2022-10-31T14:59:38.216Z,18.83
2022-10-31T15:02:12.286Z,17.10
2022-10-31T15:04:38.992Z,14.45
2022-10-31T15:07:12.262Z,19.73
2022-10-31T15:09:41.089Z,18.60
2022-10-31T15:12:24.892Z,16.02
2022-10-31T15:14:51.586Z,23.65
2022-10-31T15:17:18.282Z,25.10
2022-10-31T15:19:45.045Z,18.73
2022-10-31T15:22:17.206Z,17.55
2022-10-31T15:24:43.875Z,19.92
2022-10-31T15:27:15.894Z,16.15
2022-10-31T15:29:51.599Z,20.08
2022-10-31T15:32:27.914Z,15.45
2022-10-31T15:34:55.384Z,23.15
2022-10-31T15:37:25.225Z,17.80
2022-10-31T15:39:52.176Z,21.70
2022-10-31T15:42:36.235Z,27.95
2022-10-31T15:45:17.011Z,11.52
2022-10-31T15:47:51.599Z,17.52
2022-10-31T15:50:21.079Z,15.43
2022-10-31T15:52:48.731Z,18.30
2022-10-31T15:57:57.245Z,34.03
2022-10-31T16:00:32.830Z,26.00
2022-10-31T16:03:22.040Z,18.67
2022-10-31T16:05:51.475Z,16.65
2022-10-31T16:08:35.404Z,27.98
2022-10-31T16:14:03.103Z,21.17
2022-10-31T16:16:35.133Z,23.27
2022-10-31T16:19:03.427Z,21.60
2022-10-31T16:21:32.876Z,27.20
2022-10-31T16:24:05.781Z,20.88
2022-10-31T16:26:32.959Z,29.23
2022-10-31T16:29:04.794Z,17.15
2022-10-31T16:31:38.084Z,22.20
2022-10-31T16:36:35.747Z,16.63
2022-10-31T16:39:03.264Z,28.77
2022-10-31T16:41:29.831Z,20.75
2022-10-31T16:43:56.595Z,19.98
2022-10-31T16:46:24.680Z,17.38
2022-10-31T16:48:51.349Z,25.15
2022-10-31T16:51:17.976Z,24.08
2022-10-31T16:53:46.880Z,21.63
2022-10-31T16:56:24.831Z,18.13
2022-10-31T16:58:51.420Z,21.80
2022-10-31T17:01:18.214Z,20.30
2022-10-31T17:03:45.017Z,21.25
2022-10-31T17:06:12.963Z,16.60
2022-10-31T17:08:39.561Z,17.63
2022-10-31T17:11:06.195Z,21.63
2022-10-31T17:13:33.467Z,26.55
2022-10-31T17:16:00.733Z,19.25
2022-10-31T17:18:28.065Z,22.65
2022-10-31T17:20:57.857Z,23.40
2022-10-31T17:23:24.409Z,19.35
2022-10-31T17:25:51.088Z,28.30
2022-10-31T17:28:18.345Z,24.42
2022-10-31T17:30:44.973Z,23.20
2022-10-31T17:33:13.255Z,25.17
2022-10-31T17:35:39.895Z,22.52
2022-10-31T17:38:06.482Z,23.63
2022-10-31T17:40:33.385Z,19.50
2022-10-31T17:43:00.281Z,20.45
2022-10-31T17:45:27.242Z,25.88
2022-10-31T17:47:54.067Z,24.52
2022-10-31T17:50:22.349Z,26.40
2022-10-31T17:52:49.190Z,19.08
2022-10-31T17:55:15.962Z,22.88
2022-10-31T17:57:43.964Z,24.45
2022-10-31T18:00:13.677Z,25.50
2022-10-31T18:02:40.350Z,23.33
2022-10-31T18:05:07.305Z,22.40
2022-10-31T18:07:33.948Z,24.13
2022-10-31T18:10:00.559Z,25.55
2022-10-31T18:12:27.600Z,30.50
2022-10-31T18:14:54.257Z,28.90
2022-10-31T18:17:20.985Z,25.92
2022-10-31T18:19:47.553Z,25.08
2022-10-31T18:22:14.144Z,24.88
2022-10-31T18:24:40.719Z,17.83
2022-10-31T18:27:07.977Z,29.02
2022-10-31T18:29:34.560Z,32.58
2022-10-31T18:32:05.434Z,21.73
2022-10-31T18:34:34.950Z,24.17
2022-10-31T18:37:01.878Z,23.65
2022-10-31T18:39:28.557Z,25.83
2022-10-31T18:41:55.224Z,22.35
2022-10-31T18:44:21.840Z,25.58
2022-10-31T18:46:48.422Z,18.77
2022-10-31T18:49:22.067Z,22.92
2022-10-31T18:51:51.737Z,22.13
2022-10-31T18:54:18.412Z,22.92
2022-10-31T18:56:45.094Z,28.48
2022-10-31T18:59:11.823Z,25.20
2022-10-31T19:01:38.674Z,20.25
2022-10-31T19:04:05.507Z,32.38
2022-10-31T19:06:32.074Z,28.15
2022-10-31T19:08:59.987Z,22.17
2022-10-31T19:11:26.780Z,23.77
2022-10-31T19:13:53.411Z,27.23
2022-10-31T19:16:20.015Z,26.75
2022-10-31T19:18:46.673Z,33.10
2022-10-31T19:21:15.126Z,23.35
2022-10-31T19:23:42.007Z,27.58
2022-10-31T19:26:08.706Z,26.52
2022-10-31T19:28:36.653Z,21.60
2022-10-31T19:31:03.435Z,28.95
2022-10-31T19:33:34.891Z,24.48
2022-10-31T19:36:08.283Z,24.60
2022-10-31T19:38:35.854Z,27.93
2022-10-31T19:41:04.298Z,27.23
2022-10-31T19:43:30.932Z,28.33
2022-10-31T19:45:58.754Z,24.60
2022-10-31T19:48:25.494Z,27.88
2022-10-31T19:50:56.277Z,37.50
2022-10-31T19:53:25.163Z,33.30
2022-10-31T19:55:51.775Z,30.83
2022-10-31T19:58:18.568Z,25.00
2022-10-31T20:00:45.395Z,33.75
2022-10-31T20:03:12.233Z,24.20
2022-10-31T20:05:41.463Z,24.20
2022-10-31T20:08:16.139Z,22.27
2022-10-31T20:10:53.453Z,24.13
2022-10-31T20:13:20.106Z,27.60
2022-10-31T20:15:46.714Z,23.70
2022-10-31T20:18:13.463Z,29.73
2022-10-31T20:20:40.276Z,25.52
2022-10-31T20:23:06.944Z,32.50
2022-10-31T20:25:33.556Z,22.60
2022-10-31T20:28:00.332Z,18.58
2022-10-31T20:30:27.708Z,22.15
2022-10-31T20:32:54.678Z,24.05
2022-10-31T20:35:21.301Z,23.55
2022-10-31T20:37:47.867Z,24.85
2022-10-31T20:40:14.629Z,25.70
2022-10-31T20:42:41.223Z,25.42
2022-10-31T20:45:08.294Z,27.02
2022-10-31T20:47:34.906Z,23.98
2022-10-31T20:50:01.863Z,27.60
2022-10-31T20:52:28.482Z,23.10
2022-10-31T20:54:55.352Z,23.10
2022-10-31T20:57:21.953Z,25.45
2022-10-31T20:59:48.610Z,22.75
2022-10-31T21:02:15.420Z,28.85
2022-10-31T21:04:42.119Z,22.38
2022-10-31T21:07:08.799Z,24.48
2022-10-31T21:09:35.460Z,26.50
2022-10-31T21:12:02.225Z,29.65
2022-10-31T21:14:28.856Z,38.50
2022-10-31T21:16:55.454Z,26.35
2022-10-31T21:19:22.045Z,31.20
2022-10-31T21:21:48.686Z,23.08
2022-10-31T21:26:45.505Z,19.05
2022-10-31T21:29:12.447Z,18.52
2022-10-31T21:31:39.388Z,29.98
2022-10-31T21:34:06.023Z,21.38
2022-10-31T21:36:32.870Z,22.05
2022-10-31T21:38:59.483Z,23.70
2022-10-31T21:41:26.435Z,18.52
2022-10-31T21:43:54.508Z,20.60
2022-10-31T21:46:22.911Z,24.63
2022-10-31T21:48:49.682Z,17.35
2022-10-31T21:51:20.081Z,19.30
2022-10-31T21:54:06.593Z,17.33
2022-10-31T21:56:33.467Z,19.65
2022-10-31T21:59:00.107Z,17.85
2022-10-31T22:01:27.521Z,15.10
2022-10-31T22:03:54.458Z,18.23
2022-10-31T22:06:21.349Z,17.80
2022-10-31T22:08:47.950Z,24.77
2022-10-31T22:11:16.356Z,17.10
2022-10-31T22:13:44.787Z,14.90
2022-10-31T22:16:12.844Z,14.02
2022-10-31T22:18:39.778Z,17.75
2022-10-31T22:21:07.999Z,17.63
2022-10-31T22:23:34.751Z,12.50
2022-10-31T22:26:06.374Z,18.45
2022-10-31T22:28:33.514Z,18.15
2022-10-31T22:31:04.779Z,18.20
2022-10-31T22:33:31.426Z,15.57
2022-10-31T22:36:03.071Z,20.35
2022-10-31T22:38:30.602Z,13.45
2022-10-31T22:40:58.738Z,16.25
2022-10-31T22:43:25.400Z,23.48
2022-10-31T22:45:56.190Z,18.60
2022-10-31T22:48:22.771Z,17.08
2022-10-31T22:50:49.396Z,15.63
2022-10-31T22:53:16.086Z,15.18
2022-10-31T22:55:42.704Z,16.90
2022-10-31T22:58:09.326Z,16.67
2022-10-31T23:00:36.042Z,15.93
2022-10-31T23:03:02.725Z,16.90
2022-10-31T23:05:29.406Z,17.48
2022-10-31T23:07:56.040Z,22.58
2022-10-31T23:10:33.193Z,23.13
2022-10-31T23:13:20.427Z,21.75
2022-10-31T23:15:46.998Z,17.58
2022-10-31T23:18:19.023Z,16.13
2022-10-31T23:20:52.290Z,13.38
2022-10-31T23:23:18.937Z,18.17
2022-10-31T23:26:05.575Z,16.40
2022-10-31T23:28:32.577Z,15.65
2022-10-31T23:30:59.151Z,16.40
2022-10-31T23:33:30.534Z,18.75
2022-10-31T23:35:58.017Z,14.10
2022-10-31T23:38:24.582Z,17.35
2022-10-31T23:40:51.158Z,20.98
2022-10-31T23:43:17.880Z,13.93
2022-10-31T23:45:44.578Z,16.70
2022-10-31T23:48:11.182Z,12.43
2022-10-31T23:50:37.873Z,15.98
2022-10-31T23:53:04.546Z,15.93
2022-10-31T23:55:31.193Z,15.93
2022-10-31T23:57:57.794Z,13.20
